createdAt,value
2022-11-12T00:00:01.511Z,0
2022-11-12T00:01:01.500Z,0
2022-11-12T00:02:01.561Z,0
2022-11-12T00:03:01.521Z,0
2022-11-12T00:04:01.529Z,0
2022-11-12T00:05:01.521Z,0
2022-11-12T00:06:01.532Z,0
2022-11-12T00:07:01.598Z,0
2022-11-12T00:08:01.506Z,0
2022-11-12T00:09:01.562Z,0
2022-11-12T00:10:01.503Z,0
2022-11-12T00:11:01.501Z,0
2022-11-12T00:12:01.522Z,0
2022-11-12T00:13:01.498Z,0
2022-11-12T00:14:01.536Z,0
2022-11-12T00:15:01.508Z,0
2022-11-12T00:16:01.508Z,0
2022-11-12T00:17:01.510Z,0
2022-11-12T00:18:01.517Z,0
2022-11-12T00:19:01.515Z,0
2022-11-12T00:20:01.508Z,0
2022-11-12T00:21:01.507Z,0
2022-11-12T00:22:01.507Z,0
2022-11-12T00:23:01.504Z,0
2022-11-12T00:24:01.516Z,0
2022-11-12T00:25:01.509Z,0
2022-11-12T00:26:01.502Z,0
2022-11-12T00:27:01.525Z,0
2022-11-12T00:28:01.506Z,0
2022-11-12T00:29:01.525Z,0
2022-11-12T00:30:01.526Z,0
2022-11-12T00:31:01.504Z,0
2022-11-12T00:32:01.507Z,0
2022-11-12T00:33:01.526Z,0
2022-11-12T00:34:01.531Z,0
2022-11-12T00:35:02.861Z,0
2022-11-12T00:36:01.511Z,0
2022-11-12T00:37:01.515Z,0
2022-11-12T00:38:01.523Z,0
2022-11-12T00:39:01.552Z,0
2022-11-12T00:40:01.546Z,0
2022-11-12T00:41:01.529Z,0
2022-11-12T00:42:01.537Z,0
2022-11-12T00:43:01.526Z,0
2022-11-12T00:44:01.539Z,0
2022-11-12T00:45:01.526Z,0
2022-11-12T00:46:01.524Z,0
2022-11-12T00:47:01.523Z,0
2022-11-12T00:48:01.517Z,0
2022-11-12T00:49:01.543Z,0
2022-11-12T00:50:01.521Z,0
2022-11-12T00:51:01.522Z,0
2022-11-12T00:52:01.522Z,0
2022-11-12T00:53:01.530Z,0
2022-11-12T00:54:01.636Z,0
2022-11-12T00:55:01.525Z,0
2022-11-12T00:56:01.521Z,0
2022-11-12T00:57:01.639Z,0
2022-11-12T00:58:01.519Z,0
2022-11-12T00:59:01.534Z,0
2022-11-12T01:00:01.512Z,0
2022-11-12T01:01:01.563Z,0
2022-11-12T01:02:01.523Z,0
2022-11-12T01:03:01.513Z,0
2022-11-12T01:04:01.591Z,0
2022-11-12T01:05:01.516Z,0
2022-11-12T01:06:01.525Z,0
2022-11-12T01:07:01.606Z,0
2022-11-12T01:08:01.520Z,0
2022-11-12T01:09:01.541Z,0
2022-11-12T01:10:01.522Z,0
2022-11-12T01:11:01.524Z,0
2022-11-12T01:12:01.537Z,0
2022-11-12T01:13:01.528Z,0
2022-11-12T01:14:01.526Z,0
2022-11-12T01:15:01.521Z,0
2022-11-12T01:16:01.532Z,0
2022-11-12T01:17:01.517Z,0
2022-11-12T01:18:01.524Z,0
2022-11-12T01:19:01.579Z,0
2022-11-12T01:20:01.527Z,0
2022-11-12T01:21:01.526Z,0
2022-11-12T01:22:01.616Z,0
2022-11-12T01:23:01.508Z,0
2022-11-12T01:24:01.517Z,0
2022-11-12T01:25:01.508Z,0
2022-11-12T01:26:01.515Z,0
2022-11-12T01:27:01.523Z,0
2022-11-12T01:28:01.506Z,0
2022-11-12T01:29:01.519Z,0
2022-11-12T01:30:01.510Z,0
2022-11-12T01:31:01.511Z,0
2022-11-12T01:32:01.501Z,0
2022-11-12T01:33:01.508Z,0
2022-11-12T01:34:01.523Z,0
2022-11-12T01:35:01.524Z,0
2022-11-12T01:36:01.509Z,0
2022-11-12T01:37:01.503Z,0
2022-11-12T01:38:01.507Z,0
2022-11-12T01:39:01.520Z,0
2022-11-12T01:40:01.509Z,0
2022-11-12T01:41:01.504Z,0
2022-11-12T01:42:01.522Z,0
2022-11-12T01:43:01.507Z,0
2022-11-12T01:44:01.513Z,0
2022-11-12T01:45:01.501Z,0
2022-11-12T01:46:01.508Z,0
2022-11-12T01:47:01.512Z,0
2022-11-12T01:48:01.532Z,0
2022-11-12T01:49:01.528Z,0
2022-11-12T01:50:01.532Z,0
2022-11-12T01:51:01.522Z,0
2022-11-12T01:52:01.522Z,0
2022-11-12T01:53:01.528Z,0
2022-11-12T01:54:01.531Z,0
2022-11-12T01:55:01.561Z,0
2022-11-12T01:56:01.545Z,0
2022-11-12T01:57:01.543Z,0
2022-11-12T01:58:01.528Z,0
2022-11-12T01:59:01.537Z,0
2022-11-12T02:00:01.523Z,0
2022-11-12T02:01:01.553Z,0
2022-11-12T02:02:01.519Z,0
2022-11-12T02:03:01.525Z,0
2022-11-12T02:04:01.540Z,0
2022-11-12T02:05:01.525Z,0
2022-11-12T02:06:01.525Z,0
2022-11-12T02:07:01.601Z,0
2022-11-12T02:08:01.519Z,0
2022-11-12T02:09:07.333Z,0
2022-11-12T02:10:01.515Z,0
2022-11-12T02:11:01.525Z,0
2022-11-12T02:12:01.530Z,0
2022-11-12T02:13:01.510Z,0
2022-11-12T02:14:01.605Z,0
2022-11-12T02:15:01.518Z,0
2022-11-12T02:16:01.519Z,0
2022-11-12T02:17:01.518Z,0
2022-11-12T02:18:01.515Z,0
2022-11-12T02:19:01.525Z,0
2022-11-12T02:20:01.540Z,0
2022-11-12T02:21:01.514Z,0
2022-11-12T02:22:01.533Z,0
2022-11-12T02:23:01.510Z,0
2022-11-12T02:24:01.524Z,0
2022-11-12T02:25:01.522Z,0
2022-11-12T02:26:01.507Z,0
2022-11-12T02:27:01.512Z,0
2022-11-12T02:28:01.524Z,0
2022-11-12T02:29:01.512Z,0
2022-11-12T02:30:01.522Z,0
2022-11-12T02:31:01.557Z,0
2022-11-12T02:32:01.514Z,0
2022-11-12T02:33:01.516Z,0
2022-11-12T02:34:01.513Z,0
2022-11-12T02:35:01.527Z,0
2022-11-12T02:36:01.512Z,0
2022-11-12T02:37:01.513Z,0
2022-11-12T02:38:01.518Z,0
2022-11-12T02:39:01.506Z,0
2022-11-12T02:40:01.525Z,0
2022-11-12T02:41:01.494Z,0
2022-11-12T02:42:01.527Z,0
2022-11-12T02:43:01.494Z,0
2022-11-12T02:44:01.499Z,0
2022-11-12T02:45:01.523Z,0
2022-11-12T02:46:01.493Z,0
2022-11-12T02:47:01.514Z,0
2022-11-12T02:48:01.515Z,0
2022-11-12T02:49:01.495Z,0
2022-11-12T02:50:01.517Z,0
2022-11-12T02:51:01.510Z,0
2022-11-12T02:52:01.509Z,0
2022-11-12T02:53:01.500Z,0
2022-11-12T02:54:01.491Z,0
2022-11-12T02:55:01.513Z,0
2022-11-12T02:56:01.518Z,0
2022-11-12T02:57:01.516Z,0
2022-11-12T02:58:01.498Z,0
2022-11-12T02:59:01.507Z,0
2022-11-12T03:00:01.519Z,0
2022-11-12T03:01:01.566Z,0
2022-11-12T03:02:01.516Z,0
2022-11-12T03:03:01.523Z,0
2022-11-12T03:04:01.523Z,0
2022-11-12T03:05:01.526Z,0
2022-11-12T03:06:01.518Z,0
2022-11-12T03:07:01.548Z,0
2022-11-12T03:08:01.519Z,0
2022-11-12T03:09:01.514Z,0
2022-11-12T03:10:01.529Z,0
2022-11-12T03:11:01.518Z,0
2022-11-12T03:12:01.521Z,0
2022-11-12T03:13:01.518Z,0
2022-11-12T03:14:01.515Z,0
2022-11-12T03:15:01.527Z,0
2022-11-12T03:16:01.515Z,0
2022-11-12T03:17:01.550Z,0
2022-11-12T03:18:01.509Z,0
2022-11-12T03:19:01.523Z,0
2022-11-12T03:20:01.564Z,0
2022-11-12T03:21:01.509Z,0
2022-11-12T03:22:01.521Z,0
2022-11-12T03:23:01.513Z,0
2022-11-12T03:24:01.517Z,0
2022-11-12T03:25:01.536Z,0
2022-11-12T03:26:01.505Z,0
2022-11-12T03:27:01.530Z,0
2022-11-12T03:28:01.516Z,0
2022-11-12T03:29:01.520Z,0
2022-11-12T03:30:01.516Z,0
2022-11-12T03:31:01.510Z,0
2022-11-12T03:32:01.511Z,0
2022-11-12T03:33:01.512Z,0
2022-11-12T03:34:01.498Z,0
2022-11-12T03:35:01.530Z,0
2022-11-12T03:36:01.518Z,0
2022-11-12T03:37:01.518Z,0
2022-11-12T03:38:01.509Z,0
2022-11-12T03:39:01.512Z,0
2022-11-12T03:40:01.535Z,0
2022-11-12T03:41:01.511Z,0
2022-11-12T03:42:01.524Z,0
2022-11-12T03:43:01.518Z,0
2022-11-12T03:44:01.513Z,0
2022-11-12T03:45:01.533Z,0
2022-11-12T03:46:01.516Z,0
2022-11-12T03:47:01.517Z,0
2022-11-12T03:48:01.513Z,0
2022-11-12T03:49:01.499Z,0
2022-11-12T03:50:01.525Z,0
2022-11-12T03:51:01.514Z,0
2022-11-12T03:52:01.495Z,0
2022-11-12T03:53:01.497Z,0
2022-11-12T03:54:01.503Z,0
2022-11-12T03:55:01.510Z,0
2022-11-12T03:56:01.583Z,0
2022-11-12T03:57:01.517Z,0
2022-11-12T03:58:01.498Z,0
2022-11-12T03:59:01.494Z,0
2022-11-12T04:00:01.545Z,0
2022-11-12T04:01:01.551Z,0
2022-11-12T04:02:01.493Z,0
2022-11-12T04:03:01.492Z,0
2022-11-12T04:04:01.504Z,0
2022-11-12T04:05:01.507Z,0
2022-11-12T04:06:01.499Z,0
2022-11-12T04:07:01.538Z,0
2022-11-12T04:08:01.493Z,0
2022-11-12T04:09:01.520Z,0
2022-11-12T04:10:01.510Z,0
2022-11-12T04:11:01.494Z,0
2022-11-12T04:12:01.517Z,0
2022-11-12T04:13:01.493Z,0
2022-11-12T04:14:01.495Z,0
2022-11-12T04:15:01.548Z,0
2022-11-12T04:16:01.517Z,0
2022-11-12T04:17:01.528Z,0
2022-11-12T04:18:01.520Z,0
2022-11-12T04:19:01.534Z,0
2022-11-12T04:20:01.624Z,0
2022-11-12T04:21:01.510Z,0
2022-11-12T04:22:01.518Z,0
2022-11-12T04:23:01.507Z,0
2022-11-12T04:24:01.519Z,0
2022-11-12T04:25:01.552Z,0
2022-11-12T04:26:01.508Z,0
2022-11-12T04:27:01.542Z,0
2022-11-12T04:28:01.509Z,0
2022-11-12T04:29:01.519Z,0
2022-11-12T04:30:01.545Z,0
2022-11-12T04:31:01.503Z,0
2022-11-12T04:32:01.528Z,0
2022-11-12T04:33:01.594Z,0
2022-11-12T04:34:01.519Z,0
2022-11-12T04:35:01.692Z,0
2022-11-12T04:36:01.514Z,0
2022-11-12T04:37:01.514Z,0
2022-11-12T04:38:01.520Z,0
2022-11-12T04:39:01.513Z,0
2022-11-12T04:40:01.526Z,0
2022-11-12T04:41:01.508Z,0
2022-11-12T04:42:01.533Z,0
2022-11-12T04:43:01.517Z,0
2022-11-12T04:44:01.504Z,0
2022-11-12T04:45:01.549Z,0
2022-11-12T04:46:01.494Z,0
2022-11-12T04:47:01.518Z,0
2022-11-12T04:48:01.509Z,0
2022-11-12T04:49:01.519Z,0
2022-11-12T04:50:01.527Z,0
2022-11-12T04:51:01.512Z,0
2022-11-12T04:52:01.515Z,0
2022-11-12T04:53:01.511Z,0
2022-11-12T04:54:01.521Z,0
2022-11-12T04:55:01.532Z,0
2022-11-12T04:56:01.515Z,0
2022-11-12T04:57:01.543Z,0
2022-11-12T04:58:01.526Z,0
2022-11-12T04:59:01.523Z,0
2022-11-12T05:00:01.518Z,0
2022-11-12T05:01:01.598Z,0
2022-11-12T05:02:01.516Z,0
2022-11-12T05:03:01.515Z,0
2022-11-12T05:04:01.497Z,0
2022-11-12T05:05:01.510Z,0
2022-11-12T05:06:01.493Z,0
2022-11-12T05:07:01.598Z,0
2022-11-12T05:08:01.512Z,0
2022-11-12T05:09:01.505Z,0
2022-11-12T05:10:01.512Z,0
2022-11-12T05:11:01.504Z,0
2022-11-12T05:12:01.525Z,0
2022-11-12T05:13:01.498Z,0
2022-11-12T05:14:01.500Z,0
2022-11-12T05:15:01.514Z,0
2022-11-12T05:16:01.498Z,0
2022-11-12T05:17:01.503Z,0
2022-11-12T05:18:01.493Z,0
2022-11-12T05:19:01.494Z,0
2022-11-12T05:20:01.611Z,0
2022-11-12T05:21:01.502Z,0
2022-11-12T05:22:01.494Z,0
2022-11-12T05:23:07.771Z,0
2022-11-12T05:24:01.503Z,0
2022-11-12T05:25:01.511Z,0
2022-11-12T05:26:01.500Z,0
2022-11-12T05:27:01.509Z,0
2022-11-12T05:28:01.497Z,0
2022-11-12T05:29:04.965Z,0
2022-11-12T05:30:01.523Z,0
2022-11-12T05:31:01.517Z,0
2022-11-12T05:32:01.514Z,0
2022-11-12T05:33:01.518Z,0
2022-11-12T05:34:01.505Z,0
2022-11-12T05:35:01.533Z,0
2022-11-12T05:36:01.518Z,0
2022-11-12T05:37:01.505Z,0
2022-11-12T05:38:01.517Z,0
2022-11-12T05:39:01.507Z,0
2022-11-12T05:40:01.514Z,0
2022-11-12T05:41:01.561Z,1
2022-11-12T05:43:01.515Z,1
2022-11-12T05:44:01.514Z,3
2022-11-12T05:45:01.527Z,5
2022-11-12T05:46:01.507Z,5
2022-11-12T05:47:01.519Z,9
2022-11-12T05:48:01.513Z,9
2022-11-12T05:49:01.518Z,11
2022-11-12T05:50:01.525Z,14
2022-11-12T05:51:12.863Z,16
2022-11-12T05:52:01.515Z,20
2022-11-12T05:53:01.513Z,23
2022-11-12T05:54:01.515Z,29
2022-11-12T05:55:01.523Z,33
2022-11-12T05:56:01.510Z,40
2022-11-12T05:57:01.539Z,46
2022-11-12T05:58:01.507Z,55
2022-11-12T05:59:01.510Z,62
2022-11-12T06:00:01.516Z,71
2022-11-12T06:01:01.549Z,81
2022-11-12T06:02:01.549Z,90
2022-11-12T06:03:01.516Z,101
2022-11-12T06:04:01.511Z,114
2022-11-12T06:05:01.530Z,125
2022-11-12T06:06:01.513Z,136
2022-11-12T06:07:01.561Z,151
2022-11-12T06:08:01.525Z,165
2022-11-12T06:09:01.525Z,165
2022-11-12T06:10:01.518Z,199
2022-11-12T06:11:01.522Z,215
2022-11-12T06:12:01.621Z,235
2022-11-12T06:13:01.522Z,259
2022-11-12T06:14:01.510Z,285
2022-11-12T06:15:01.567Z,315
2022-11-12T06:16:01.515Z,346
2022-11-12T06:17:01.508Z,379
2022-11-12T06:18:01.519Z,414
2022-11-12T06:19:01.505Z,453
2022-11-12T06:20:01.526Z,492
2022-11-12T06:21:01.490Z,492
2022-11-12T06:22:01.501Z,534
2022-11-12T06:23:01.500Z,615
2022-11-12T06:24:01.500Z,656
2022-11-12T06:25:01.510Z,696
2022-11-12T06:26:01.507Z,735
2022-11-12T06:27:01.510Z,768
2022-11-12T06:28:01.500Z,812
2022-11-12T06:29:01.496Z,857
2022-11-12T06:30:01.510Z,905
2022-11-12T06:31:01.493Z,952
2022-11-12T06:32:01.502Z,1004
2022-11-12T06:33:01.492Z,1058
2022-11-12T06:34:01.498Z,1111
2022-11-12T06:35:01.514Z,1168
2022-11-12T06:36:01.499Z,1223
2022-11-12T06:37:01.503Z,1275
2022-11-12T06:38:01.501Z,1334
2022-11-12T06:39:01.505Z,1382
2022-11-12T06:40:01.512Z,1428
2022-11-12T06:41:01.495Z,1487
2022-11-12T06:42:01.514Z,1542
2022-11-12T06:43:01.513Z,1601
2022-11-12T06:44:01.513Z,1660
2022-11-12T06:45:01.516Z,1725
2022-11-12T06:46:01.509Z,1791
2022-11-12T06:47:01.526Z,1861
2022-11-12T06:48:01.514Z,1937
2022-11-12T06:49:01.516Z,2034
2022-11-12T06:50:01.508Z,2136
2022-11-12T06:51:01.507Z,2257
2022-11-12T06:52:01.513Z,2390
2022-11-12T06:53:01.502Z,2541
2022-11-12T06:54:01.518Z,2807
2022-11-12T06:55:01.527Z,3150
2022-11-12T06:56:01.510Z,3706
2022-11-12T06:57:01.527Z,3903
2022-11-12T06:58:01.520Z,4224
2022-11-12T06:59:01.510Z,4497
2022-11-12T07:00:01.513Z,4878
2022-11-12T07:01:01.509Z,5249
2022-11-12T07:02:01.587Z,5852
2022-11-12T07:03:01.513Z,6447
2022-11-12T07:04:01.509Z,7216
2022-11-12T07:05:01.534Z,8049
2022-11-12T07:06:01.540Z,8817
2022-11-12T07:07:01.574Z,9496
2022-11-12T07:08:01.515Z,9673
2022-11-12T07:09:01.515Z,9673
2022-11-12T07:10:01.518Z,8434
2022-11-12T07:11:01.515Z,8226
2022-11-12T07:12:01.521Z,8714
2022-11-12T07:13:01.508Z,9066
2022-11-12T07:14:01.508Z,8593
2022-11-12T07:15:01.541Z,7195
2022-11-12T07:16:01.514Z,6064
2022-11-12T07:17:01.509Z,5566
2022-11-12T07:18:01.519Z,5277
2022-11-12T07:19:01.493Z,5194
2022-11-12T07:20:03.836Z,4993
2022-11-12T07:21:01.511Z,4692
2022-11-12T07:22:01.513Z,4643
2022-11-12T07:23:01.508Z,4654
2022-11-12T07:24:01.517Z,4676
2022-11-12T07:25:01.525Z,4766
2022-11-12T07:26:01.512Z,4858
2022-11-12T07:27:01.523Z,5030
2022-11-12T07:28:01.524Z,5231
2022-11-12T07:29:01.520Z,5350
2022-11-12T07:30:01.563Z,5461
2022-11-12T07:31:01.505Z,5599
2022-11-12T07:32:01.609Z,5765
2022-11-12T07:33:01.498Z,5981
2022-11-12T07:34:01.493Z,6213
2022-11-12T07:35:01.512Z,6213
2022-11-12T07:36:01.492Z,8290
2022-11-12T07:37:01.491Z,11372
2022-11-12T07:38:01.498Z,14032
2022-11-12T07:39:01.498Z,15831
2022-11-12T07:40:01.512Z,15538
2022-11-12T07:41:01.498Z,15589
2022-11-12T07:42:01.523Z,16017
2022-11-12T07:43:01.497Z,16463
2022-11-12T07:44:01.493Z,16128
2022-11-12T07:45:01.515Z,15927
2022-11-12T07:46:06.101Z,16223
2022-11-12T07:47:01.500Z,16223
2022-11-12T07:48:01.498Z,17252
2022-11-12T07:49:01.503Z,17335
2022-11-12T07:50:01.528Z,17090
2022-11-12T07:51:01.494Z,17012
2022-11-12T07:52:01.517Z,16472
2022-11-12T07:53:01.500Z,16303
2022-11-12T07:54:01.519Z,16504
2022-11-12T07:55:01.513Z,16338
2022-11-12T07:56:01.517Z,15764
2022-11-12T07:57:01.528Z,15536
2022-11-12T07:58:01.515Z,15359
2022-11-12T07:59:01.509Z,15447
2022-11-12T08:00:01.531Z,16203
2022-11-12T08:01:01.556Z,15761
2022-11-12T08:02:01.516Z,14913
2022-11-12T08:03:01.596Z,14845
2022-11-12T08:04:01.526Z,15036
2022-11-12T08:05:01.521Z,14583
2022-11-12T08:06:01.509Z,14651
2022-11-12T08:07:01.668Z,14666
2022-11-12T08:08:01.667Z,14585
2022-11-12T08:09:01.526Z,14585
2022-11-12T08:10:01.531Z,14345
2022-11-12T08:11:01.512Z,14045
2022-11-12T08:12:01.533Z,13800
2022-11-12T08:13:01.522Z,13442
2022-11-12T08:14:01.520Z,13258
2022-11-12T08:15:01.532Z,13219
2022-11-12T08:16:01.526Z,13429
2022-11-12T08:17:01.508Z,13519
2022-11-12T08:18:01.518Z,13398
2022-11-12T08:19:01.523Z,14021
2022-11-12T08:20:01.531Z,13816
2022-11-12T08:21:01.530Z,13788
2022-11-12T08:22:01.520Z,13846
2022-11-12T08:23:01.520Z,13824
2022-11-12T08:24:01.514Z,14109
2022-11-12T08:25:01.534Z,14236
2022-11-12T08:26:01.515Z,14006
2022-11-12T08:27:01.536Z,13693
2022-11-12T08:28:01.548Z,13477
2022-11-12T08:29:06.889Z,13302
2022-11-12T08:30:01.535Z,12815
2022-11-12T08:31:01.518Z,13521
2022-11-12T08:32:01.515Z,13774
2022-11-12T08:33:01.516Z,14065
2022-11-12T08:34:01.609Z,13363
2022-11-12T08:35:01.533Z,13243
2022-11-12T08:36:01.507Z,13001
2022-11-12T08:37:01.519Z,12736
2022-11-12T08:38:01.509Z,12784
2022-11-12T08:39:01.509Z,12928
2022-11-12T08:40:01.502Z,13036
2022-11-12T08:41:01.501Z,13051
2022-11-12T08:42:01.537Z,13027
2022-11-12T08:43:01.520Z,12854
2022-11-12T08:44:07.127Z,12987
2022-11-12T08:45:01.537Z,13025
2022-11-12T08:46:01.494Z,13007
2022-11-12T08:47:01.500Z,13071
2022-11-12T08:48:01.506Z,13140
2022-11-12T08:49:01.505Z,13084
2022-11-12T08:50:01.540Z,12992
2022-11-12T08:51:01.502Z,12861
2022-11-12T08:52:01.501Z,12725
2022-11-12T08:53:01.499Z,12469
2022-11-12T08:54:01.509Z,12373
2022-11-12T08:55:01.518Z,12511
2022-11-12T08:56:01.502Z,12629
2022-11-12T08:57:01.519Z,13278
2022-11-12T08:58:01.495Z,12646
2022-11-12T08:59:06.220Z,12730
2022-11-12T09:00:01.521Z,12810
2022-11-12T09:01:01.496Z,14013
2022-11-12T09:02:01.547Z,13208
2022-11-12T09:03:01.501Z,12705
2022-11-12T09:04:01.499Z,12852
2022-11-12T09:05:01.539Z,13328
2022-11-12T09:06:01.495Z,13892
2022-11-12T09:07:01.547Z,13986
2022-11-12T09:08:01.529Z,14041
2022-11-12T09:09:01.505Z,14041
2022-11-12T09:10:01.520Z,12970
2022-11-12T09:11:01.573Z,12270
2022-11-12T09:12:08.210Z,11741
2022-11-12T09:13:01.519Z,10668
2022-11-12T09:14:01.671Z,10922
2022-11-12T09:15:30.710Z,11208
2022-11-12T09:16:01.520Z,11464
2022-11-12T09:17:01.573Z,11899
2022-11-12T09:18:01.517Z,12544
2022-11-12T09:19:01.519Z,13118
2022-11-12T09:20:01.519Z,13541
2022-11-12T09:21:01.517Z,13717
2022-11-12T09:22:01.516Z,14201
2022-11-12T09:23:01.512Z,14294
2022-11-12T09:24:01.516Z,14380
2022-11-12T09:25:01.526Z,14218
2022-11-12T09:26:01.518Z,13818
2022-11-12T09:27:01.531Z,13221
2022-11-12T09:28:01.521Z,12517
2022-11-12T09:29:01.517Z,12196
2022-11-12T09:30:01.507Z,12295
2022-11-12T09:31:01.513Z,12401
2022-11-12T09:32:01.514Z,12773
2022-11-12T09:33:01.521Z,12679
2022-11-12T09:34:01.516Z,12653
2022-11-12T09:35:01.519Z,12071
2022-11-12T09:36:01.519Z,12231
2022-11-12T09:37:01.521Z,13333
2022-11-12T09:38:01.509Z,13687
2022-11-12T09:39:01.514Z,14093
2022-11-12T09:40:01.515Z,15049
2022-11-12T09:41:01.523Z,17460
2022-11-12T09:42:02.248Z,18019
2022-11-12T09:43:01.511Z,19659
2022-11-12T09:44:01.514Z,18133
2022-11-12T09:45:01.529Z,18756
2022-11-12T09:46:26.209Z,18677
2022-11-12T09:47:01.526Z,18579
2022-11-12T09:48:01.507Z,18035
2022-11-12T09:49:01.510Z,16367
2022-11-12T09:50:01.524Z,14273
2022-11-12T09:51:01.525Z,13134
2022-11-12T09:52:01.509Z,12806
2022-11-12T09:53:01.510Z,11966
2022-11-12T09:54:01.577Z,11765
2022-11-12T09:55:01.526Z,12638
2022-11-12T09:56:01.514Z,12638
2022-11-12T09:57:01.516Z,12493
2022-11-12T09:58:01.507Z,12078
2022-11-12T09:59:01.497Z,12144
2022-11-12T10:00:01.517Z,12347
2022-11-12T10:01:01.513Z,12316
2022-11-12T10:02:01.564Z,12163
2022-11-12T10:03:01.498Z,11923
2022-11-12T10:04:01.500Z,12244
2022-11-12T10:05:01.516Z,14054
2022-11-12T10:06:01.501Z,15672
2022-11-12T10:07:01.529Z,16590
2022-11-12T10:08:01.493Z,16789
2022-11-12T10:09:01.494Z,16789
2022-11-12T10:10:01.517Z,16680
2022-11-12T10:11:01.499Z,16487
2022-11-12T10:12:04.425Z,16085
2022-11-12T10:13:01.494Z,17187
2022-11-12T10:14:01.521Z,17700
2022-11-12T10:15:01.516Z,17783
2022-11-12T10:16:01.494Z,17731
2022-11-12T10:17:01.506Z,17412
2022-11-12T10:18:01.498Z,17112
2022-11-12T10:19:01.494Z,16041
2022-11-12T10:20:01.516Z,15492
2022-11-12T10:21:01.500Z,15335
2022-11-12T10:22:01.497Z,15294
2022-11-12T10:23:01.521Z,15333
2022-11-12T10:24:01.517Z,14771
2022-11-12T10:25:01.566Z,14493
2022-11-12T10:26:01.516Z,14312
2022-11-12T10:27:01.530Z,13497
2022-11-12T10:28:01.553Z,13901
2022-11-12T10:29:01.511Z,14778
2022-11-12T10:30:01.514Z,15411
2022-11-12T10:31:01.519Z,16535
2022-11-12T10:32:01.519Z,16876
2022-11-12T10:33:01.523Z,17862
2022-11-12T10:34:01.516Z,17280
2022-11-12T10:35:01.531Z,16579
2022-11-12T10:36:01.507Z,16684
2022-11-12T10:37:01.511Z,16787
2022-11-12T10:38:01.514Z,16725
2022-11-12T10:39:01.507Z,16621
2022-11-12T10:40:01.529Z,16920
2022-11-12T10:41:03.624Z,16736
2022-11-12T10:42:01.523Z,16437
2022-11-12T10:43:01.508Z,16502
2022-11-12T10:44:01.517Z,16526
2022-11-12T10:45:01.527Z,16450
2022-11-12T10:46:01.507Z,16264
2022-11-12T10:47:01.521Z,16358
2022-11-12T10:48:01.512Z,16269
2022-11-12T10:49:01.507Z,16242
2022-11-12T10:50:01.511Z,15890
2022-11-12T10:51:01.513Z,15514
2022-11-12T10:52:01.521Z,15337
2022-11-12T10:53:01.512Z,15232
2022-11-12T10:54:01.521Z,15387
2022-11-12T10:55:01.548Z,15534
2022-11-12T10:56:01.515Z,15667
2022-11-12T10:57:01.530Z,15720
2022-11-12T10:58:01.513Z,15809
2022-11-12T10:59:01.509Z,15663
2022-11-12T11:00:01.529Z,15154
2022-11-12T11:01:01.509Z,14904
2022-11-12T11:02:01.560Z,13999
2022-11-12T11:03:01.517Z,14284
2022-11-12T11:04:01.508Z,14616
2022-11-12T11:05:01.526Z,15001
2022-11-12T11:06:01.508Z,15248
2022-11-12T11:07:01.618Z,15033
2022-11-12T11:08:01.516Z,15007
2022-11-12T11:09:01.512Z,15007
2022-11-12T11:10:01.528Z,14129
2022-11-12T11:11:01.508Z,14019
2022-11-12T11:12:01.526Z,13184
2022-11-12T11:13:01.521Z,12037
2022-11-12T11:14:01.509Z,12675
2022-11-12T11:15:01.542Z,11612
2022-11-12T11:16:01.505Z,11612
2022-11-12T11:17:01.495Z,11125
2022-11-12T11:18:01.506Z,9711
2022-11-12T11:19:01.503Z,8718
2022-11-12T11:20:01.508Z,8110
2022-11-12T11:21:01.492Z,8008
2022-11-12T11:22:01.497Z,7898
2022-11-12T11:23:01.498Z,7944
2022-11-12T11:24:01.498Z,8150
2022-11-12T11:25:01.535Z,7995
2022-11-12T11:26:01.498Z,7564
2022-11-12T11:27:01.524Z,7498
2022-11-12T11:28:01.505Z,7492
2022-11-12T11:29:01.500Z,7772
2022-11-12T11:30:01.540Z,7899
2022-11-12T11:31:01.522Z,8255
2022-11-12T11:32:01.504Z,8200
2022-11-12T11:33:01.499Z,8158
2022-11-12T11:34:01.495Z,7724
2022-11-12T11:35:01.517Z,7593
2022-11-12T11:36:01.496Z,7389
2022-11-12T11:37:01.499Z,6961
2022-11-12T11:38:01.520Z,6795
2022-11-12T11:39:01.499Z,6698
2022-11-12T11:40:01.534Z,6648
2022-11-12T11:41:01.517Z,6567
2022-11-12T11:42:01.529Z,6556
2022-11-12T11:43:01.570Z,6547
2022-11-12T11:44:01.601Z,6556
2022-11-12T11:45:01.519Z,6582
2022-11-12T11:46:01.513Z,6547
2022-11-12T11:47:01.511Z,6563
2022-11-12T11:48:02.475Z,6617
2022-11-12T11:49:01.550Z,6723
2022-11-12T11:50:01.527Z,6849
2022-11-12T11:51:01.524Z,6891
2022-11-12T11:52:01.579Z,6947
2022-11-12T11:53:01.530Z,6869
2022-11-12T11:54:01.530Z,6856
2022-11-12T11:55:01.533Z,6956
2022-11-12T11:56:01.511Z,7048
2022-11-12T11:57:01.524Z,7374
2022-11-12T11:58:01.510Z,7715
2022-11-12T11:59:01.516Z,8275
2022-11-12T12:00:01.519Z,8646
2022-11-12T12:01:01.518Z,8841
2022-11-12T12:02:01.514Z,9057
2022-11-12T12:03:01.504Z,9085
2022-11-12T12:04:01.623Z,9072
2022-11-12T12:05:01.534Z,8757
2022-11-12T12:06:01.505Z,8593
2022-11-12T12:07:01.545Z,8504
2022-11-12T12:08:01.511Z,8056
2022-11-12T12:09:01.510Z,8056
2022-11-12T12:10:06.293Z,8364
2022-11-12T12:11:08.090Z,8346
2022-11-12T12:12:01.528Z,9057
2022-11-12T12:13:01.521Z,9361
2022-11-12T12:14:01.510Z,9378
2022-11-12T12:15:01.677Z,9462
2022-11-12T12:16:01.494Z,9956
2022-11-12T12:17:01.513Z,9356
2022-11-12T12:18:01.515Z,9180
2022-11-12T12:19:01.523Z,8692
2022-11-12T12:20:01.530Z,8309
2022-11-12T12:21:01.511Z,7514
2022-11-12T12:22:01.519Z,7317
2022-11-12T12:23:01.512Z,6836
2022-11-12T12:24:01.513Z,6622
2022-11-12T12:25:01.516Z,6600
2022-11-12T12:26:01.510Z,6591
2022-11-12T12:27:01.516Z,6349
2022-11-12T12:28:01.492Z,5787
2022-11-12T12:29:01.495Z,5610
2022-11-12T12:30:01.519Z,5577
2022-11-12T12:31:01.508Z,5601
2022-11-12T12:32:01.493Z,5568
2022-11-12T12:33:01.500Z,5369
2022-11-12T12:34:01.501Z,5306
2022-11-12T12:35:01.521Z,5549
2022-11-12T12:36:01.499Z,5559
2022-11-12T12:37:01.497Z,5656
2022-11-12T12:38:01.493Z,6159
2022-11-12T12:39:01.498Z,6526
2022-11-12T12:40:01.513Z,7007
2022-11-12T12:41:01.501Z,7702
2022-11-12T12:42:01.528Z,7593
2022-11-12T12:43:01.492Z,8563
2022-11-12T12:44:01.494Z,9914
2022-11-12T12:45:01.590Z,10351
2022-11-12T12:46:01.493Z,10701
2022-11-12T12:47:01.516Z,11121
2022-11-12T12:48:01.516Z,10952
2022-11-12T12:49:01.516Z,10297
2022-11-12T12:50:01.513Z,10497
2022-11-12T12:51:01.529Z,10091
2022-11-12T12:52:01.514Z,10108
2022-11-12T12:53:01.508Z,9934
2022-11-12T12:54:01.516Z,9544
2022-11-12T12:55:01.518Z,9352
2022-11-12T12:56:01.512Z,9534
2022-11-12T12:57:01.527Z,10027
2022-11-12T12:58:01.517Z,10408
2022-11-12T12:59:01.525Z,10583
2022-11-12T13:00:01.514Z,11402
2022-11-12T13:01:01.530Z,9875
2022-11-12T13:02:01.525Z,9564
2022-11-12T13:03:01.541Z,9418
2022-11-12T13:04:01.519Z,9444
2022-11-12T13:05:01.531Z,9571
2022-11-12T13:06:01.567Z,10052
2022-11-12T13:07:01.556Z,9689
2022-11-12T13:08:01.510Z,10161
2022-11-12T13:09:01.508Z,10161
2022-11-12T13:10:01.527Z,10262
2022-11-12T13:11:01.519Z,10233
2022-11-12T13:12:01.548Z,9938
2022-11-12T13:13:01.516Z,9993
2022-11-12T13:14:01.514Z,10078
2022-11-12T13:15:01.520Z,9483
2022-11-12T13:16:01.526Z,10003
2022-11-12T13:17:01.504Z,9732
2022-11-12T13:18:01.515Z,9394
2022-11-12T13:19:01.512Z,8731
2022-11-12T13:20:01.522Z,8764
2022-11-12T13:21:01.508Z,8607
2022-11-12T13:22:01.509Z,8414
2022-11-12T13:23:01.512Z,8242
2022-11-12T13:24:01.510Z,8115
2022-11-12T13:25:01.528Z,7966
2022-11-12T13:26:01.523Z,7735
2022-11-12T13:27:01.520Z,7474
2022-11-12T13:28:01.515Z,7265
2022-11-12T13:29:01.513Z,6832
2022-11-12T13:30:01.528Z,6436
2022-11-12T13:31:01.518Z,6204
2022-11-12T13:32:01.514Z,5981
2022-11-12T13:33:01.511Z,5826
2022-11-12T13:34:01.516Z,5570
2022-11-12T13:35:01.530Z,5496
2022-11-12T13:36:01.518Z,5184
2022-11-12T13:37:01.517Z,5195
2022-11-12T13:38:01.520Z,5074
2022-11-12T13:39:04.957Z,4919
2022-11-12T13:40:01.507Z,4775
2022-11-12T13:41:01.498Z,4665
2022-11-12T13:42:01.521Z,4576
2022-11-12T13:43:01.499Z,4491
2022-11-12T13:44:01.497Z,4414
2022-11-12T13:45:01.528Z,4414
2022-11-12T13:46:01.499Z,4208
2022-11-12T13:47:01.499Z,4180
2022-11-12T13:48:01.496Z,4086